sensor_id;sensor_type;location;lat;lon;timestamp;pressure;altitude;pressure_sealevel;temperature;humidity
16525;BME280;8375;33.594;-117.718;2023-02-12T00:01:38;99979.97;;;13.74;55.88
16525;BME280;8375;33.594;-117.718;2023-02-12T00:04:06;99983.91;;;13.88;55.19
16525;BME280;8375;33.594;-117.718;2023-02-12T00:06:35;99977.72;;;13.89;56.74
16525;BME280;8375;33.594;-117.718;2023-02-12T00:09:06;99983.66;;;13.81;56.88
16525;BME280;8375;33.594;-117.718;2023-02-12T00:11:35;99985.88;;;13.76;57.52
16525;BME280;8375;33.594;-117.718;2023-02-12T00:14:04;99983.66;;;13.81;57.88
16525;BME280;8375;33.594;-117.718;2023-02-12T00:16:33;99982.84;;;13.81;58.05
16525;BME280;8375;33.594;-117.718;2023-02-12T00:19:02;99987.84;;;13.64;57.38
16525;BME280;8375;33.594;-117.718;2023-02-12T00:21:30;99999.53;;;13.50;58.18
16525;BME280;8375;33.594;-117.718;2023-02-12T00:24:01;99985.16;;;13.46;59.14
16525;BME280;8375;33.594;-117.718;2023-02-12T00:26:31;99979.94;;;13.36;59.74
16525;BME280;8375;33.594;-117.718;2023-02-12T00:29:00;99989.25;;;13.39;59.97
16525;BME280;8375;33.594;-117.718;2023-02-12T00:31:30;99996.13;;;13.40;60.46
16525;BME280;8375;33.594;-117.718;2023-02-12T00:33:59;99993.25;;;13.33;59.93
16525;BME280;8375;33.594;-117.718;2023-02-12T00:36:30;100002.34;;;13.29;59.51
16525;BME280;8375;33.594;-117.718;2023-02-12T00:38:59;99999.84;;;13.27;60.23
16525;BME280;8375;33.594;-117.718;2023-02-12T00:41:30;99998.22;;;13.26;60.10
16525;BME280;8375;33.594;-117.718;2023-02-12T00:43:58;100000.13;;;13.24;59.58
16525;BME280;8375;33.594;-117.718;2023-02-12T00:46:27;100005.91;;;13.18;59.91
16525;BME280;8375;33.594;-117.718;2023-02-12T00:48:56;100007.41;;;13.11;59.92
16525;BME280;8375;33.594;-117.718;2023-02-12T00:51:24;100010.59;;;13.04;60.63
16525;BME280;8375;33.594;-117.718;2023-02-12T00:53:53;100009.50;;;12.97;60.84
16525;BME280;8375;33.594;-117.718;2023-02-12T00:56:22;100015.66;;;12.86;60.90
16525;BME280;8375;33.594;-117.718;2023-02-12T00:58:52;100021.69;;;12.77;61.72
16525;BME280;8375;33.594;-117.718;2023-02-12T01:01:21;100022.22;;;12.71;61.24
16525;BME280;8375;33.594;-117.718;2023-02-12T01:03:49;100012.09;;;12.58;61.54
16525;BME280;8375;33.594;-117.718;2023-02-12T01:06:18;100018.53;;;12.54;61.41
16525;BME280;8375;33.594;-117.718;2023-02-12T01:08:50;100017.69;;;12.43;62.41
16525;BME280;8375;33.594;-117.718;2023-02-12T01:11:19;100019.56;;;12.31;62.55
16525;BME280;8375;33.594;-117.718;2023-02-12T01:13:48;100026.44;;;12.32;62.98
16525;BME280;8375;33.594;-117.718;2023-02-12T01:16:20;100020.94;;;12.26;63.30
16525;BME280;8375;33.594;-117.718;2023-02-12T01:18:49;100023.94;;;12.21;63.48
16525;BME280;8375;33.594;-117.718;2023-02-12T01:21:19;100028.84;;;12.14;63.75
16525;BME280;8375;33.594;-117.718;2023-02-12T01:23:48;100033.63;;;12.09;64.23
16525;BME280;8375;33.594;-117.718;2023-02-12T01:26:18;100034.97;;;12.03;64.65
16525;BME280;8375;33.594;-117.718;2023-02-12T01:28:50;100032.31;;;11.94;64.97
16525;BME280;8375;33.594;-117.718;2023-02-12T01:31:22;100034.34;;;11.90;65.52
16525;BME280;8375;33.594;-117.718;2023-02-12T01:33:52;100032.00;;;11.87;66.29
16525;BME280;8375;33.594;-117.718;2023-02-12T01:36:22;100031.44;;;11.83;66.01
16525;BME280;8375;33.594;-117.718;2023-02-12T01:38:50;100032.94;;;11.76;66.60
16525;BME280;8375;33.594;-117.718;2023-02-12T01:41:20;100044.28;;;11.75;66.99
16525;BME280;8375;33.594;-117.718;2023-02-12T01:44:08;100052.59;;;11.69;67.38
16525;BME280;8375;33.594;-117.718;2023-02-12T01:46:38;100053.81;;;11.65;67.31
16525;BME280;8375;33.594;-117.718;2023-02-12T01:49:10;100058.69;;;11.58;67.44
16525;BME280;8375;33.594;-117.718;2023-02-12T01:51:40;100057.19;;;11.55;67.64
16525;BME280;8375;33.594;-117.718;2023-02-12T01:54:11;100054.13;;;11.50;67.67
16525;BME280;8375;33.594;-117.718;2023-02-12T01:56:41;100056.66;;;11.40;67.55
16525;BME280;8375;33.594;-117.718;2023-02-12T01:59:11;100054.47;;;11.36;67.75
16525;BME280;8375;33.594;-117.718;2023-02-12T02:01:41;100055.66;;;11.32;68.01
16525;BME280;8375;33.594;-117.718;2023-02-12T02:04:12;100062.38;;;11.34;68.73
16525;BME280;8375;33.594;-117.718;2023-02-12T02:06:47;100053.06;;;11.32;69.31
16525;BME280;8375;33.594;-117.718;2023-02-12T02:09:18;100059.56;;;11.26;70.09
16525;BME280;8375;33.594;-117.718;2023-02-12T02:11:47;100063.38;;;11.22;70.60
16525;BME280;8375;33.594;-117.718;2023-02-12T02:14:33;100056.06;;;11.15;71.05
16525;BME280;8375;33.594;-117.718;2023-02-12T02:17:23;100054.94;;;11.08;71.49
16525;BME280;8375;33.594;-117.718;2023-02-12T02:20:15;100060.50;;;11.04;71.89
16525;BME280;8375;33.594;-117.718;2023-02-12T02:22:55;100068.91;;;10.96;72.29
16525;BME280;8375;33.594;-117.718;2023-02-12T02:28:58;100069.66;;;10.86;73.03
16525;BME280;8375;33.594;-117.718;2023-02-12T02:31:39;100075.47;;;10.79;73.65
16525;BME280;8375;33.594;-117.718;2023-02-12T02:34:14;100073.63;;;10.69;73.93
16525;BME280;8375;33.594;-117.718;2023-02-12T02:36:48;100079.16;;;10.65;74.17
16525;BME280;8375;33.594;-117.718;2023-02-12T02:39:22;100075.75;;;10.64;75.00
16525;BME280;8375;33.594;-117.718;2023-02-12T02:41:58;100082.56;;;10.54;75.31
16525;BME280;8375;33.594;-117.718;2023-02-12T02:44:34;100073.88;;;10.44;75.77
16525;BME280;8375;33.594;-117.718;2023-02-12T02:47:08;100076.59;;;10.42;75.70
16525;BME280;8375;33.594;-117.718;2023-02-12T02:49:43;100079.28;;;10.40;75.49
16525;BME280;8375;33.594;-117.718;2023-02-12T02:52:16;100083.28;;;10.33;76.35
16525;BME280;8375;33.594;-117.718;2023-02-12T02:54:48;100084.69;;;10.26;76.45
16525;BME280;8375;33.594;-117.718;2023-02-12T02:57:21;100092.47;;;10.26;76.20
16525;BME280;8375;33.594;-117.718;2023-02-12T02:59:54;100087.53;;;10.23;76.85
16525;BME280;8375;33.594;-117.718;2023-02-12T03:02:28;100090.50;;;10.18;76.92
16525;BME280;8375;33.594;-117.718;2023-02-12T03:05:02;100090.84;;;10.13;77.19
16525;BME280;8375;33.594;-117.718;2023-02-12T03:07:35;100088.47;;;10.10;77.74
16525;BME280;8375;33.594;-117.718;2023-02-12T03:10:09;100094.38;;;10.01;77.83
16525;BME280;8375;33.594;-117.718;2023-02-12T03:12:43;100093.19;;;9.94;78.25
16525;BME280;8375;33.594;-117.718;2023-02-12T03:15:20;100100.25;;;9.92;79.04
16525;BME280;8375;33.594;-117.718;2023-02-12T03:17:53;100099.53;;;9.90;79.31
16525;BME280;8375;33.594;-117.718;2023-02-12T03:20:27;100107.31;;;9.90;79.77
16525;BME280;8375;33.594;-117.718;2023-02-12T03:22:59;100103.66;;;9.81;79.44
16525;BME280;8375;33.594;-117.718;2023-02-12T03:25:33;100109.66;;;9.81;80.16
16525;BME280;8375;33.594;-117.718;2023-02-12T03:28:05;100114.38;;;9.76;80.54
16525;BME280;8375;33.594;-117.718;2023-02-12T03:30:43;100117.66;;;9.67;80.14
16525;BME280;8375;33.594;-117.718;2023-02-12T03:33:22;100122.47;;;9.60;80.24
16525;BME280;8375;33.594;-117.718;2023-02-12T03:35:58;100127.97;;;9.56;80.54
16525;BME280;8375;33.594;-117.718;2023-02-12T03:38:35;100125.53;;;9.54;81.09
16525;BME280;8375;33.594;-117.718;2023-02-12T03:41:09;100127.94;;;9.44;81.22
16525;BME280;8375;33.594;-117.718;2023-02-12T03:43:46;100127.38;;;9.41;81.69
16525;BME280;8375;33.594;-117.718;2023-02-12T03:46:20;100131.00;;;9.38;82.04
16525;BME280;8375;33.594;-117.718;2023-02-12T03:48:58;100126.97;;;9.34;81.85
16525;BME280;8375;33.594;-117.718;2023-02-12T03:51:33;100128.03;;;9.31;81.70
16525;BME280;8375;33.594;-117.718;2023-02-12T03:54:02;100126.59;;;9.27;82.03
16525;BME280;8375;33.594;-117.718;2023-02-12T03:56:36;100132.59;;;9.28;81.90
16525;BME280;8375;33.594;-117.718;2023-02-12T03:59:05;100133.53;;;9.27;81.82
16525;BME280;8375;33.594;-117.718;2023-02-12T04:01:35;100135.75;;;9.20;82.41
16525;BME280;8375;33.594;-117.718;2023-02-12T04:04:07;100133.47;;;9.15;82.58
16525;BME280;8375;33.594;-117.718;2023-02-12T04:06:36;100135.34;;;9.13;82.64
16525;BME280;8375;33.594;-117.718;2023-02-12T04:09:07;100135.78;;;9.07;83.14
16525;BME280;8375;33.594;-117.718;2023-02-12T04:11:46;100131.69;;;9.04;83.16
16525;BME280;8375;33.594;-117.718;2023-02-12T04:14:24;100126.81;;;9.00;83.40
16525;BME280;8375;33.594;-117.718;2023-02-12T04:16:59;100135.00;;;8.93;83.29
16525;BME280;8375;33.594;-117.718;2023-02-12T04:19:36;100139.19;;;8.83;83.99
16525;BME280;8375;33.594;-117.718;2023-02-12T04:22:16;100145.66;;;8.77;84.71
16525;BME280;8375;33.594;-117.718;2023-02-12T04:24:57;100146.34;;;8.79;84.52
16525;BME280;8375;33.594;-117.718;2023-02-12T04:27:34;100139.63;;;8.77;84.51
16525;BME280;8375;33.594;-117.718;2023-02-12T04:30:08;100142.56;;;8.72;84.83
16525;BME280;8375;33.594;-117.718;2023-02-12T04:32:43;100142.66;;;8.71;85.21
16525;BME280;8375;33.594;-117.718;2023-02-12T04:35:20;100143.56;;;8.70;85.06
16525;BME280;8375;33.594;-117.718;2023-02-12T04:37:56;100142.34;;;8.62;85.48
16525;BME280;8375;33.594;-117.718;2023-02-12T04:40:28;100144.84;;;8.64;85.21
16525;BME280;8375;33.594;-117.718;2023-02-12T04:42:57;100144.22;;;8.60;85.56
16525;BME280;8375;33.594;-117.718;2023-02-12T04:45:27;100147.03;;;8.57;85.97
16525;BME280;8375;33.594;-117.718;2023-02-12T04:47:57;100145.69;;;8.51;86.09
16525;BME280;8375;33.594;-117.718;2023-02-12T04:50:35;100155.59;;;8.45;86.49
16525;BME280;8375;33.594;-117.718;2023-02-12T04:53:05;100156.22;;;8.35;86.42
16525;BME280;8375;33.594;-117.718;2023-02-12T04:55:34;100159.94;;;8.31;86.75
16525;BME280;8375;33.594;-117.718;2023-02-12T04:58:03;100155.91;;;8.27;86.74
16525;BME280;8375;33.594;-117.718;2023-02-12T05:00:32;100161.31;;;8.24;86.77
16525;BME280;8375;33.594;-117.718;2023-02-12T05:03:01;100162.34;;;8.21;86.56
16525;BME280;8375;33.594;-117.718;2023-02-12T05:05:31;100163.88;;;8.24;86.79
16525;BME280;8375;33.594;-117.718;2023-02-12T05:08:00;100166.78;;;8.19;87.40
16525;BME280;8375;33.594;-117.718;2023-02-12T05:10:29;100158.63;;;8.13;87.27
16525;BME280;8375;33.594;-117.718;2023-02-12T05:12:58;100164.72;;;8.12;87.89
16525;BME280;8375;33.594;-117.718;2023-02-12T05:15:26;100162.25;;;8.10;87.28
16525;BME280;8375;33.594;-117.718;2023-02-12T05:17:56;100151.19;;;8.08;88.20
16525;BME280;8375;33.594;-117.718;2023-02-12T05:20:25;100157.47;;;8.04;88.64
16525;BME280;8375;33.594;-117.718;2023-02-12T05:22:55;100148.16;;;8.01;88.72
16525;BME280;8375;33.594;-117.718;2023-02-12T05:25:23;100147.34;;;8.01;88.95
16525;BME280;8375;33.594;-117.718;2023-02-12T05:27:52;100150.53;;;8.04;89.71
16525;BME280;8375;33.594;-117.718;2023-02-12T05:30:22;100161.41;;;8.10;90.21
16525;BME280;8375;33.594;-117.718;2023-02-12T05:32:50;100161.72;;;8.05;89.83
16525;BME280;8375;33.594;-117.718;2023-02-12T05:35:19;100164.91;;;8.08;89.59
16525;BME280;8375;33.594;-117.718;2023-02-12T05:37:48;100161.59;;;8.06;89.16
16525;BME280;8375;33.594;-117.718;2023-02-12T05:40:18;100152.81;;;7.96;89.19
16525;BME280;8375;33.594;-117.718;2023-02-12T05:42:47;100158.38;;;7.90;89.76
16525;BME280;8375;33.594;-117.718;2023-02-12T05:45:18;100160.84;;;7.91;89.85
16525;BME280;8375;33.594;-117.718;2023-02-12T05:47:53;100168.41;;;7.95;89.93
16525;BME280;8375;33.594;-117.718;2023-02-12T05:50:21;100164.78;;;7.84;89.69
16525;BME280;8375;33.594;-117.718;2023-02-12T05:52:50;100164.91;;;7.83;89.88
16525;BME280;8375;33.594;-117.718;2023-02-12T05:55:20;100166.09;;;7.77;89.57
16525;BME280;8375;33.594;-117.718;2023-02-12T05:57:50;100164.44;;;7.76;89.57
16525;BME280;8375;33.594;-117.718;2023-02-12T06:00:20;100153.72;;;7.69;89.88
16525;BME280;8375;33.594;-117.718;2023-02-12T06:02:48;100148.75;;;7.66;90.23
16525;BME280;8375;33.594;-117.718;2023-02-12T06:05:17;100150.59;;;7.64;90.79
16525;BME280;8375;33.594;-117.718;2023-02-12T06:07:46;100149.75;;;7.63;90.52
16525;BME280;8375;33.594;-117.718;2023-02-12T06:10:14;100142.94;;;7.62;91.06
16525;BME280;8375;33.594;-117.718;2023-02-12T06:12:45;100144.06;;;7.58;91.10
16525;BME280;8375;33.594;-117.718;2023-02-12T06:15:13;100141.47;;;7.58;91.49
16525;BME280;8375;33.594;-117.718;2023-02-12T06:17:42;100139.00;;;7.57;91.91
16525;BME280;8375;33.594;-117.718;2023-02-12T06:20:11;100139.00;;;7.57;92.11
16525;BME280;8375;33.594;-117.718;2023-02-12T06:22:39;100140.66;;;7.58;93.09
16525;BME280;8375;33.594;-117.718;2023-02-12T06:25:08;100135.16;;;7.49;92.21
16525;BME280;8375;33.594;-117.718;2023-02-12T06:27:37;100136.50;;;7.42;91.72
16525;BME280;8375;33.594;-117.718;2023-02-12T06:30:08;100133.19;;;7.40;91.99
16525;BME280;8375;33.594;-117.718;2023-02-12T06:32:37;100132.72;;;7.33;92.89
16525;BME280;8375;33.594;-117.718;2023-02-12T06:35:06;100133.19;;;7.40;93.66
16525;BME280;8375;33.594;-117.718;2023-02-12T06:37:35;100128.94;;;7.39;92.79
16525;BME280;8375;33.594;-117.718;2023-02-12T06:40:05;100138.94;;;7.31;92.35
16525;BME280;8375;33.594;-117.718;2023-02-12T06:42:34;100135.81;;;7.26;92.42
16525;BME280;8375;33.594;-117.718;2023-02-12T06:45:03;100139.13;;;7.28;93.38
16525;BME280;8375;33.594;-117.718;2023-02-12T06:47:33;100139.91;;;7.15;93.34
16525;BME280;8375;33.594;-117.718;2023-02-12T06:50:02;100137.00;;;7.07;92.58
16525;BME280;8375;33.594;-117.718;2023-02-12T06:52:30;100132.09;;;7.02;92.48
16525;BME280;8375;33.594;-117.718;2023-02-12T06:54:59;100128.38;;;6.94;93.28
16525;BME280;8375;33.594;-117.718;2023-02-12T06:57:28;100135.66;;;6.87;93.26
16525;BME280;8375;33.594;-117.718;2023-02-12T06:59:57;100123.78;;;6.84;93.34
16525;BME280;8375;33.594;-117.718;2023-02-12T07:02:26;100126.25;;;6.86;93.38
16525;BME280;8375;33.594;-117.718;2023-02-12T07:04:56;100123.97;;;6.81;93.01
16525;BME280;8375;33.594;-117.718;2023-02-12T07:07:24;100130.06;;;6.80;93.54
16525;BME280;8375;33.594;-117.718;2023-02-12T07:09:53;100127.75;;;6.75;93.78
16525;BME280;8375;33.594;-117.718;2023-02-12T07:12:22;100125.91;;;6.78;94.50
16525;BME280;8375;33.594;-117.718;2023-02-12T07:14:51;100128.59;;;6.76;95.03
16525;BME280;8375;33.594;-117.718;2023-02-12T07:17:19;100126.63;;;6.80;95.85
16525;BME280;8375;33.594;-117.718;2023-02-12T07:19:48;100131.53;;;6.84;96.38
16525;BME280;8375;33.594;-117.718;2023-02-12T07:22:18;100125.53;;;6.84;95.90
16525;BME280;8375;33.594;-117.718;2023-02-12T07:24:47;100127.19;;;6.85;96.27
16525;BME280;8375;33.594;-117.718;2023-02-12T07:27:17;100124.22;;;6.91;96.80
16525;BME280;8375;33.594;-117.718;2023-02-12T07:29:45;100116.94;;;6.98;96.63
16525;BME280;8375;33.594;-117.718;2023-02-12T07:32:14;100123.00;;;6.97;96.47
16525;BME280;8375;33.594;-117.718;2023-02-12T07:34:43;100111.59;;;6.86;96.02
16525;BME280;8375;33.594;-117.718;2023-02-12T07:37:11;100111.88;;;6.82;95.83
16525;BME280;8375;33.594;-117.718;2023-02-12T07:39:42;100118.06;;;6.79;95.85
16525;BME280;8375;33.594;-117.718;2023-02-12T07:42:10;100107.22;;;6.74;95.86
16525;BME280;8375;33.594;-117.718;2023-02-12T07:44:40;100113.31;;;6.73;96.17
16525;BME280;8375;33.594;-117.718;2023-02-12T07:47:09;100104.81;;;6.71;97.03
16525;BME280;8375;33.594;-117.718;2023-02-12T07:49:38;100098.81;;;6.70;97.01
16525;BME280;8375;33.594;-117.718;2023-02-12T07:52:06;100106.38;;;6.73;96.91
16525;BME280;8375;33.594;-117.718;2023-02-12T07:54:35;100095.03;;;6.76;97.10
16525;BME280;8375;33.594;-117.718;2023-02-12T07:57:05;100096.34;;;6.69;96.69
16525;BME280;8375;33.594;-117.718;2023-02-12T07:59:34;100096.34;;;6.69;97.13
16525;BME280;8375;33.594;-117.718;2023-02-12T08:02:03;100099.75;;;6.69;97.22
16525;BME280;8375;33.594;-117.718;2023-02-12T08:04:31;100096.00;;;6.60;96.84
16525;BME280;8375;33.594;-117.718;2023-02-12T08:07:00;100098.22;;;6.52;96.58
16525;BME280;8375;33.594;-117.718;2023-02-12T08:09:29;100103.94;;;6.43;96.39
16525;BME280;8375;33.594;-117.718;2023-02-12T08:11:58;100099.97;;;6.37;96.04
16525;BME280;8375;33.594;-117.718;2023-02-12T08:14:28;100107.34;;;6.29;96.09
16525;BME280;8375;33.594;-117.718;2023-02-12T08:16:57;100103.59;;;6.35;97.01
16525;BME280;8375;33.594;-117.718;2023-02-12T08:19:25;100103.03;;;6.29;97.10
16525;BME280;8375;33.594;-117.718;2023-02-12T08:21:55;100099.72;;;6.27;96.52
16525;BME280;8375;33.594;-117.718;2023-02-12T08:24:24;100102.00;;;6.18;96.74
16525;BME280;8375;33.594;-117.718;2023-02-12T08:26:53;100100.72;;;6.10;96.48
16525;BME280;8375;33.594;-117.718;2023-02-12T08:29:23;100089.78;;;6.07;96.38
16525;BME280;8375;33.594;-117.718;2023-02-12T08:31:57;100096.13;;;6.01;96.02
16525;BME280;8375;33.594;-117.718;2023-02-12T08:34:27;100095.44;;;5.97;96.24
16525;BME280;8375;33.594;-117.718;2023-02-12T08:36:56;100094.59;;;5.97;96.38
16525;BME280;8375;33.594;-117.718;2023-02-12T08:39:26;100101.59;;;5.95;96.72
16525;BME280;8375;33.594;-117.718;2023-02-12T08:41:56;100096.19;;;5.99;96.95
16525;BME280;8375;33.594;-117.718;2023-02-12T08:44:26;100105.03;;;5.95;96.89
16525;BME280;8375;33.594;-117.718;2023-02-12T08:46:56;100101.22;;;5.86;96.80
16525;BME280;8375;33.594;-117.718;2023-02-12T08:49:26;100097.09;;;5.84;96.83
16525;BME280;8375;33.594;-117.718;2023-02-12T08:51:56;100098.44;;;5.75;96.92
16525;BME280;8375;33.594;-117.718;2023-02-12T08:54:26;100097.63;;;5.75;96.82
16525;BME280;8375;33.594;-117.718;2023-02-12T08:56:56;100098.38;;;5.77;97.03
16525;BME280;8375;33.594;-117.718;2023-02-12T08:59:26;100091.81;;;5.71;96.57
16525;BME280;8375;33.594;-117.718;2023-02-12T09:01:56;100091.56;;;5.76;97.36
16525;BME280;8375;33.594;-117.718;2023-02-12T09:04:26;100087.88;;;5.80;98.06
16525;BME280;8375;33.594;-117.718;2023-02-12T09:06:56;100081.88;;;5.79;97.91
16525;BME280;8375;33.594;-117.718;2023-02-12T09:09:25;100087.72;;;5.83;97.99
16525;BME280;8375;33.594;-117.718;2023-02-12T09:11:53;100092.13;;;5.81;98.07
16525;BME280;8375;33.594;-117.718;2023-02-12T09:14:22;100085.38;;;5.78;98.21
16525;BME280;8375;33.594;-117.718;2023-02-12T09:16:51;100090.72;;;5.75;98.01
16525;BME280;8375;33.594;-117.718;2023-02-12T09:19:22;100094.88;;;5.78;98.46
16525;BME280;8375;33.594;-117.718;2023-02-12T09:21:52;100090.53;;;5.78;98.55
16525;BME280;8375;33.594;-117.718;2023-02-12T09:24:20;100086.41;;;5.76;98.66
16525;BME280;8375;33.594;-117.718;2023-02-12T09:26:49;100083.34;;;5.69;98.56
16525;BME280;8375;33.594;-117.718;2023-02-12T09:29:18;100082.59;;;5.67;98.27
16525;BME280;8375;33.594;-117.718;2023-02-12T09:31:46;100087.13;;;5.63;97.88
16525;BME280;8375;33.594;-117.718;2023-02-12T09:34:15;100085.38;;;5.64;98.32
16525;BME280;8375;33.594;-117.718;2023-02-12T09:36:45;100089.91;;;5.75;98.94
16525;BME280;8375;33.594;-117.718;2023-02-12T09:39:14;100088.81;;;5.79;100.00
16525;BME280;8375;33.594;-117.718;2023-02-12T09:45:03;100085.84;;;5.70;100.00
16525;BME280;8375;33.594;-117.718;2023-02-12T09:47:41;100081.50;;;5.71;100.00
16525;BME280;8375;33.594;-117.718;2023-02-12T09:50:37;100075.91;;;5.64;100.00
16525;BME280;8375;33.594;-117.718;2023-02-12T09:53:13;100074.44;;;5.60;100.00
16525;BME280;8375;33.594;-117.718;2023-02-12T09:55:43;100077.34;;;5.54;100.00
16525;BME280;8375;33.594;-117.718;2023-02-12T09:58:14;100072.94;;;5.56;100.00
16525;BME280;8375;33.594;-117.718;2023-02-12T10:00:44;100069.69;;;5.52;100.00
16525;BME280;8375;33.594;-117.718;2023-02-12T10:03:14;100072.38;;;5.51;100.00
16525;BME280;8375;33.594;-117.718;2023-02-12T10:05:47;100072.38;;;5.51;100.00
16525;BME280;8375;33.594;-117.718;2023-02-12T10:08:35;100063.56;;;5.55;100.00
16525;BME280;8375;33.594;-117.718;2023-02-12T10:11:27;100065.69;;;5.63;100.00
16525;BME280;8375;33.594;-117.718;2023-02-12T10:14:09;100062.53;;;5.57;100.00
16525;BME280;8375;33.594;-117.718;2023-02-12T10:16:49;100068.22;;;5.48;100.00
16525;BME280;8375;33.594;-117.718;2023-02-12T10:19:36;100067.75;;;5.41;100.00
16525;BME280;8375;33.594;-117.718;2023-02-12T10:22:19;100065.53;;;5.35;100.00
16525;BME280;8375;33.594;-117.718;2023-02-12T10:25:01;100059.66;;;5.33;100.00
16525;BME280;8375;33.594;-117.718;2023-02-12T10:27:38;100056.34;;;5.31;100.00
16525;BME280;8375;33.594;-117.718;2023-02-12T10:30:16;100063.13;;;5.32;100.00
16525;BME280;8375;33.594;-117.718;2023-02-12T10:32:47;100058.00;;;5.32;100.00
16525;BME280;8375;33.594;-117.718;2023-02-12T10:35:18;100061.13;;;5.37;100.00
16525;BME280;8375;33.594;-117.718;2023-02-12T10:37:51;100058.97;;;5.29;100.00
16525;BME280;8375;33.594;-117.718;2023-02-12T10:40:25;100046.03;;;5.31;100.00
16525;BME280;8375;33.594;-117.718;2023-02-12T10:42:56;100048.69;;;5.29;100.00
16525;BME280;8375;33.594;-117.718;2023-02-12T10:45:28;100038.22;;;5.33;100.00
16525;BME280;8375;33.594;-117.718;2023-02-12T10:48:09;100039.56;;;5.24;100.00
16525;BME280;8375;33.594;-117.718;2023-02-12T10:50:45;100037.25;;;5.19;100.00
16525;BME280;8375;33.594;-117.718;2023-02-12T10:53:20;100032.91;;;5.20;100.00
16525;BME280;8375;33.594;-117.718;2023-02-12T10:56:10;100026.22;;;5.17;100.00
16525;BME280;8375;33.594;-117.718;2023-02-12T10:58:42;100034.75;;;5.18;100.00
16525;BME280;8375;33.594;-117.718;2023-02-12T11:01:21;100026.28;;;5.16;100.00
16525;BME280;8375;33.594;-117.718;2023-02-12T11:03:51;100032.53;;;5.11;100.00
16525;BME280;8375;33.594;-117.718;2023-02-12T11:06:23;100030.56;;;5.01;100.00
16525;BME280;8375;33.594;-117.718;2023-02-12T11:08:53;100032.19;;;4.87;100.00
16525;BME280;8375;33.594;-117.718;2023-02-12T11:11:26;100035.72;;;4.84;100.00
16525;BME280;8375;33.594;-117.718;2023-02-12T11:13:57;100029.38;;;4.76;100.00
16525;BME280;8375;33.594;-117.718;2023-02-12T11:16:29;100031.38;;;4.70;100.00
16525;BME280;8375;33.594;-117.718;2023-02-12T11:19:00;100039.84;;;4.73;100.00
16525;BME280;8375;33.594;-117.718;2023-02-12T11:21:30;100034.84;;;4.69;100.00
16525;BME280;8375;33.594;-117.718;2023-02-12T11:24:20;100034.84;;;4.69;100.00
16525;BME280;8375;33.594;-117.718;2023-02-12T11:26:51;100030.53;;;4.70;100.00
16525;BME280;8375;33.594;-117.718;2023-02-12T11:29:39;100031.53;;;4.67;100.00
16525;BME280;8375;33.594;-117.718;2023-02-12T11:32:10;100032.34;;;4.68;100.00
16525;BME280;8375;33.594;-117.718;2023-02-12T11:34:43;100034.19;;;4.66;100.00
16525;BME280;8375;33.594;-117.718;2023-02-12T11:37:15;100028.13;;;4.67;100.00
16525;BME280;8375;33.594;-117.718;2023-02-12T11:39:47;100024.31;;;4.74;100.00
16525;BME280;8375;33.594;-117.718;2023-02-12T11:42:19;100026.88;;;4.74;100.00
16525;BME280;8375;33.594;-117.718;2023-02-12T11:44:50;100020.97;;;4.72;100.00
16525;BME280;8375;33.594;-117.718;2023-02-12T11:47:24;100018.69;;;4.67;100.00
16525;BME280;8375;33.594;-117.718;2023-02-12T11:49:55;100017.19;;;4.63;100.00
16525;BME280;8375;33.594;-117.718;2023-02-12T11:52:27;100012.97;;;4.62;100.00
16525;BME280;8375;33.594;-117.718;2023-02-12T11:54:59;100016.44;;;4.61;100.00
16525;BME280;8375;33.594;-117.718;2023-02-12T11:57:43;100013.19;;;4.58;100.00
16525;BME280;8375;33.594;-117.718;2023-02-12T12:00:15;100021.50;;;4.63;100.00
16525;BME280;8375;33.594;-117.718;2023-02-12T12:02:48;100020.00;;;4.59;100.00
16525;BME280;8375;33.594;-117.718;2023-02-12T12:05:18;100019.09;;;4.60;100.00
16525;BME280;8375;33.594;-117.718;2023-02-12T12:07:52;100017.59;;;4.55;100.00
16525;BME280;8375;33.594;-117.718;2023-02-12T12:10:30;100021.25;;;4.51;100.00
16525;BME280;8375;33.594;-117.718;2023-02-12T12:13:07;100024.91;;;4.47;100.00
16525;BME280;8375;33.594;-117.718;2023-02-12T12:15:43;100017.13;;;4.49;100.00
16525;BME280;8375;33.594;-117.718;2023-02-12T12:18:35;100018.03;;;4.48;99.97
16525;BME280;8375;33.594;-117.718;2023-02-12T12:21:28;100022.25;;;4.33;100.00
16525;BME280;8375;33.594;-117.718;2023-02-12T12:24:01;100026.91;;;4.26;100.00
16525;BME280;8375;33.594;-117.718;2023-02-12T12:26:33;100022.34;;;4.31;100.00
16525;BME280;8375;33.594;-117.718;2023-02-12T12:29:06;100026.47;;;4.34;100.00
16525;BME280;8375;33.594;-117.718;2023-02-12T12:31:40;100018.50;;;4.22;100.00
16525;BME280;8375;33.594;-117.718;2023-02-12T12:34:12;100027.22;;;4.20;99.77
16525;BME280;8375;33.594;-117.718;2023-02-12T12:39:45;100014.00;;;4.10;99.89
16525;BME280;8375;33.594;-117.718;2023-02-12T12:51:53;100013.69;;;4.00;100.00
16525;BME280;8375;33.594;-117.718;2023-02-12T12:54:37;100006.03;;;3.99;100.00
16525;BME280;8375;33.594;-117.718;2023-02-12T12:57:14;100023.06;;;4.01;100.00
16525;BME280;8375;33.594;-117.718;2023-02-12T13:00:07;100009.47;;;3.99;100.00
16525;BME280;8375;33.594;-117.718;2023-02-12T13:06:17;99997.59;;;3.96;100.00
16525;BME280;8375;33.594;-117.718;2023-02-12T13:09:11;100003.56;;;3.97;100.00
16525;BME280;8375;33.594;-117.718;2023-02-12T13:11:51;100003.78;;;3.92;100.00
16525;BME280;8375;33.594;-117.718;2023-02-12T13:14:32;99989.88;;;3.96;100.00
16525;BME280;8375;33.594;-117.718;2023-02-12T13:17:08;99988.91;;;3.99;100.00
16525;BME280;8375;33.594;-117.718;2023-02-12T13:19:51;99988.31;;;3.94;100.00
16525;BME280;8375;33.594;-117.718;2023-02-12T13:22:28;99986.56;;;3.94;100.00
16525;BME280;8375;33.594;-117.718;2023-02-12T13:25:05;99988.72;;;3.86;100.00